createdAt,value
2022-08-07T00:01:43.155Z,16.00
2022-08-07T00:06:51.614Z,16.00
2022-08-07T00:09:22.304Z,16.00
2022-08-07T00:11:56.134Z,16.00
2022-08-07T00:14:30.473Z,16.00
2022-08-07T00:16:58.171Z,16.00
2022-08-07T00:19:26.090Z,16.00
2022-08-07T00:22:03.364Z,15.90
2022-08-07T00:27:20.359Z,15.80
2022-08-07T00:29:49.915Z,15.70
2022-08-07T00:32:18.341Z,15.60
2022-08-07T00:34:55.501Z,15.80
2022-08-07T00:37:24.839Z,15.80
2022-08-07T00:39:57.395Z,15.80
2022-08-07T00:42:29.175Z,15.70
2022-08-07T00:48:07.544Z,15.50
2022-08-07T00:50:46.297Z,15.20
2022-08-07T00:53:18.112Z,15.30
2022-08-07T00:56:03.106Z,15.30
2022-08-07T00:58:31.937Z,15.50
2022-08-07T01:00:59.637Z,15.50
2022-08-07T01:03:56.314Z,15.30
2022-08-07T01:13:28.027Z,15.30
2022-08-07T01:16:05.859Z,15.10
2022-08-07T01:18:33.858Z,14.90
2022-08-07T01:21:22.810Z,14.90
2022-08-07T01:23:54.911Z,14.80
2022-08-07T01:26:26.184Z,14.80
2022-08-07T01:28:56.664Z,14.70
2022-08-07T01:34:03.554Z,14.90
2022-08-07T01:36:36.437Z,14.90
2022-08-07T01:39:10.285Z,14.90
2022-08-07T01:41:38.470Z,15.00
2022-08-07T01:44:05.887Z,14.60
2022-08-07T01:46:33.515Z,14.60
2022-08-07T01:49:00.633Z,14.60
2022-08-07T01:52:04.035Z,14.50
2022-08-07T01:59:31.059Z,14.20
2022-08-07T02:02:06.132Z,14.00
2022-08-07T02:04:56.239Z,13.90
2022-08-07T02:07:36.215Z,13.90
2022-08-07T02:10:17.352Z,13.90
2022-08-07T02:12:50.022Z,13.90
2022-08-07T02:15:25.449Z,14.10
2022-08-07T02:25:21.224Z,13.90
2022-08-07T02:28:11.393Z,14.40
2022-08-07T02:30:39.743Z,14.40
2022-08-07T02:33:10.647Z,13.80
2022-08-07T02:36:29.538Z,13.60
2022-08-07T02:38:31.500Z,13.80
2022-08-07T02:41:00.963Z,13.70
2022-08-07T02:48:36.769Z,13.50
2022-08-07T02:51:29.222Z,13.50
2022-08-07T02:54:00.417Z,13.40
2022-08-07T02:56:31.722Z,13.40
2022-08-07T02:59:04.437Z,13.70
2022-08-07T03:01:35.538Z,13.80
2022-08-07T03:04:07.713Z,13.60
2022-08-07T03:11:52.684Z,13.70
2022-08-07T03:14:28.034Z,13.40
2022-08-07T03:16:56.260Z,13.30
2022-08-07T03:19:24.067Z,13.40
2022-08-07T03:21:57.802Z,13.20
2022-08-07T03:24:27.379Z,13.10
2022-08-07T03:26:59.700Z,12.90
2022-08-07T03:35:26.094Z,12.80
2022-08-07T03:37:57.861Z,12.70
2022-08-07T03:40:30.999Z,12.70
2022-08-07T03:43:05.129Z,12.60
2022-08-07T03:45:43.691Z,12.50
2022-08-07T03:48:16.469Z,12.60
2022-08-07T03:50:55.893Z,12.60
2022-08-07T03:59:05.171Z,12.60
2022-08-07T04:01:19.909Z,12.60
2022-08-07T04:03:55.076Z,12.60
2022-08-07T04:06:37.349Z,12.50
2022-08-07T04:09:15.001Z,12.50
2022-08-07T04:12:26.860Z,12.50
2022-08-07T04:14:37.485Z,12.40
2022-08-07T04:22:17.664Z,12.40
2022-08-07T04:24:46.000Z,12.60
2022-08-07T04:27:15.349Z,12.50
2022-08-07T04:30:01.485Z,12.30
2022-08-07T04:32:34.359Z,12.30
2022-08-07T04:35:03.984Z,12.40
2022-08-07T04:38:00.967Z,12.30
2022-08-07T04:45:57.216Z,12.40
2022-08-07T04:48:28.457Z,12.60
2022-08-07T04:51:04.709Z,12.40
2022-08-07T04:54:01.404Z,12.50
2022-08-07T04:58:14.418Z,12.40
2022-08-07T05:00:12.531Z,12.30
2022-08-07T05:05:12.032Z,12.30
2022-08-07T05:08:05.168Z,12.20
2022-08-07T05:10:40.492Z,12.30
2022-08-07T05:14:56.172Z,12.30
2022-08-07T05:15:59.647Z,12.40
2022-08-07T05:18:35.400Z,12.40
2022-08-07T05:21:06.020Z,12.40
2022-08-07T05:28:48.534Z,12.20
2022-08-07T05:31:18.828Z,12.20
2022-08-07T05:34:01.502Z,12.20
2022-08-07T05:36:35.506Z,12.40
2022-08-07T05:40:06.322Z,12.40
2022-08-07T05:42:01.512Z,12.40
2022-08-07T05:44:35.699Z,12.40
2022-08-07T05:52:11.421Z,12.70
2022-08-07T05:54:53.567Z,12.80
2022-08-07T05:57:26.771Z,12.80
2022-08-07T05:59:59.601Z,13.10
2022-08-07T06:02:30.686Z,13.50
2022-08-07T06:05:03.638Z,13.40
2022-08-07T06:08:14.726Z,13.40
2022-08-07T06:13:13.687Z,13.40
2022-08-07T06:15:43.284Z,13.60
2022-08-07T06:18:13.944Z,13.70
2022-08-07T06:20:49.660Z,13.50
2022-08-07T06:24:37.691Z,13.50
2022-08-07T06:26:17.913Z,13.60
2022-08-07T06:28:50.579Z,13.60
2022-08-07T06:34:34.948Z,13.80
2022-08-07T06:37:03.031Z,13.80
2022-08-07T06:40:17.985Z,13.90
2022-08-07T06:42:32.805Z,13.80
2022-08-07T06:45:03.647Z,14.00
2022-08-07T06:47:30.849Z,14.60
2022-08-07T06:50:15.917Z,15.00
2022-08-07T06:55:53.575Z,14.90
2022-08-07T06:58:21.415Z,15.30
2022-08-07T07:00:53.250Z,15.60
2022-08-07T07:03:40.091Z,15.90
2022-08-07T07:06:11.295Z,16.00
2022-08-07T07:08:39.877Z,16.00
2022-08-07T07:12:08.869Z,16.00
2022-08-07T07:19:41.036Z,16.00
2022-08-07T07:22:05.173Z,16.30
2022-08-07T07:24:58.507Z,16.80
2022-08-07T07:27:56.190Z,17.00
2022-08-07T07:30:38.109Z,16.60
2022-08-07T07:33:08.039Z,16.60
2022-08-07T07:35:43.993Z,16.80
2022-08-07T07:44:14.019Z,16.90
2022-08-07T07:46:39.773Z,17.50
2022-08-07T07:50:31.599Z,17.20
2022-08-07T07:52:00.268Z,17.50
2022-08-07T07:54:28.567Z,17.90
2022-08-07T07:56:57.385Z,17.80
2022-08-07T07:59:52.784Z,18.20
2022-08-07T08:07:20.525Z,18.40
2022-08-07T08:10:05.339Z,19.10
2022-08-07T08:12:52.005Z,19.60
2022-08-07T08:15:23.201Z,20.10
2022-08-07T08:17:57.120Z,20.50
2022-08-07T08:20:31.769Z,20.90
2022-08-07T08:23:20.640Z,21.20
2022-08-07T08:31:15.956Z,22.00
2022-08-07T08:33:55.814Z,22.70
2022-08-07T08:36:30.235Z,22.90
2022-08-07T08:39:02.019Z,23.20
2022-08-07T08:41:56.638Z,23.50
2022-08-07T08:44:31.311Z,23.90
2022-08-07T08:47:09.891Z,24.20
2022-08-07T08:54:49.550Z,25.10
2022-08-07T08:57:26.068Z,25.10
2022-08-07T09:00:02.443Z,25.50
2022-08-07T09:02:41.899Z,25.60
2022-08-07T09:05:36.895Z,25.70
2022-08-07T09:08:28.212Z,25.80
2022-08-07T09:19:51.963Z,26.30
2022-08-07T09:24:28.134Z,26.60
2022-08-07T09:25:17.452Z,26.10
2022-08-07T09:28:00.586Z,26.00
2022-08-07T09:30:54.269Z,26.30
2022-08-07T09:33:53.212Z,26.30
2022-08-07T09:39:53.739Z,26.00
2022-08-07T09:42:23.107Z,27.10
2022-08-07T09:47:23.901Z,27.30
2022-08-07T09:48:01.611Z,26.40
2022-08-07T09:50:41.359Z,25.20
2022-08-07T09:53:12.554Z,24.90
2022-08-07T10:04:04.705Z,27.10
2022-08-07T10:07:04.219Z,25.80
2022-08-07T10:10:02.722Z,26.20
2022-08-07T10:13:15.727Z,27.30
2022-08-07T10:16:05.800Z,27.70
2022-08-07T10:18:53.078Z,27.90
2022-08-07T10:24:21.433Z,28.40
2022-08-07T10:27:10.419Z,28.80
2022-08-07T10:30:11.970Z,28.70
2022-08-07T10:33:15.058Z,28.70
2022-08-07T10:36:05.436Z,28.10
2022-08-07T10:38:51.202Z,28.20
2022-08-07T10:49:24.516Z,28.50
2022-08-07T10:52:21.787Z,28.80
2022-08-07T10:55:26.772Z,28.40
2022-08-07T10:58:11.727Z,28.70
2022-08-07T11:00:56.250Z,29.50
2022-08-07T11:03:52.589Z,28.50
2022-08-07T11:14:45.608Z,27.60
2022-08-07T11:17:23.358Z,29.10
2022-08-07T11:20:09.810Z,29.80
2022-08-07T11:22:46.262Z,30.20
2022-08-07T11:25:21.765Z,28.30
2022-08-07T11:28:01.943Z,27.40
2022-08-07T11:38:54.720Z,26.70
2022-08-07T11:42:00.105Z,26.90
2022-08-07T11:44:26.510Z,26.10
2022-08-07T11:47:05.477Z,26.80
2022-08-07T11:50:31.713Z,27.30
2022-08-07T11:52:58.010Z,27.10
2022-08-07T12:03:54.558Z,28.40
2022-08-07T12:06:38.901Z,28.30
2022-08-07T12:09:16.151Z,28.80
2022-08-07T12:12:10.576Z,29.30
2022-08-07T12:14:44.867Z,29.60
2022-08-07T12:17:27.654Z,27.50
2022-08-07T12:20:20.805Z,26.50
2022-08-07T12:28:10.310Z,26.80
2022-08-07T12:30:46.817Z,27.40
2022-08-07T12:33:30.851Z,27.30
2022-08-07T12:36:15.439Z,27.10
2022-08-07T12:38:47.432Z,27.00
2022-08-07T12:41:29.077Z,27.30
2022-08-07T12:52:14.033Z,29.00
2022-08-07T12:54:54.923Z,28.60
2022-08-07T12:57:39.081Z,28.40
2022-08-07T13:00:20.751Z,28.00
2022-08-07T13:03:22.830Z,27.10
2022-08-07T13:06:21.373Z,26.90
2022-08-07T13:14:59.160Z,26.90
2022-08-07T13:17:39.843Z,26.70
2022-08-07T13:20:29.289Z,27.10
2022-08-07T13:23:59.974Z,27.80
2022-08-07T13:26:00.875Z,27.20
2022-08-07T13:28:34.897Z,27.30
2022-08-07T13:31:13.494Z,27.10
2022-08-07T13:38:47.897Z,27.30
2022-08-07T13:41:29.688Z,26.80
2022-08-07T13:44:01.070Z,26.60
2022-08-07T13:46:37.618Z,26.30
2022-08-07T13:50:34.309Z,25.90
2022-08-07T13:52:31.513Z,25.90
2022-08-07T13:54:56.475Z,26.20
2022-08-07T14:02:49.349Z,26.10
2022-08-07T14:05:24.251Z,26.10
2022-08-07T14:08:08.531Z,25.90
2022-08-07T14:10:41.930Z,26.30
2022-08-07T14:13:16.092Z,26.70
2022-08-07T14:15:51.229Z,26.70
2022-08-07T14:18:29.798Z,26.70
2022-08-07T14:26:08.616Z,25.80
2022-08-07T14:28:57.674Z,25.40
2022-08-07T14:31:42.491Z,25.30
2022-08-07T14:34:20.358Z,25.60
2022-08-07T14:36:56.033Z,25.60
2022-08-07T14:40:16.163Z,25.10
2022-08-07T14:42:24.011Z,25.30
2022-08-07T14:49:59.271Z,25.90
2022-08-07T14:52:31.534Z,26.00
2022-08-07T14:55:02.478Z,26.10
2022-08-07T14:57:57.963Z,25.90
2022-08-07T15:00:30.910Z,26.00
2022-08-07T15:02:59.791Z,25.90
2022-08-07T15:05:30.177Z,25.70
2022-08-07T15:15:38.418Z,25.40
2022-08-07T15:18:14.315Z,25.10
2022-08-07T15:21:03.920Z,25.00
2022-08-07T15:26:39.480Z,25.10
2022-08-07T15:30:08.693Z,25.00
2022-08-07T15:35:12.786Z,24.60
2022-08-07T15:38:04.456Z,24.70
2022-08-07T15:40:35.268Z,24.80
2022-08-07T15:43:33.151Z,24.80
2022-08-07T15:46:31.638Z,25.00
2022-08-07T15:49:12.700Z,24.70
2022-08-07T15:59:39.015Z,24.40
2022-08-07T16:02:16.116Z,24.80
2022-08-07T16:04:48.810Z,25.00
2022-08-07T16:08:28.425Z,24.70
2022-08-07T16:10:14.971Z,24.70
2022-08-07T16:13:04.643Z,24.70
2022-08-07T16:24:34.340Z,24.60
2022-08-07T16:27:18.330Z,24.90
2022-08-07T16:30:29.488Z,24.80
2022-08-07T16:34:03.450Z,24.50
2022-08-07T16:36:20.317Z,24.50
2022-08-07T16:39:17.726Z,24.40
2022-08-07T16:45:31.041Z,24.40
2022-08-07T16:48:31.914Z,24.50
2022-08-07T16:51:54.183Z,24.60
2022-08-07T16:54:32.595Z,24.70
2022-08-07T16:58:03.511Z,24.80
2022-08-07T17:00:29.467Z,24.70
2022-08-07T17:08:18.368Z,24.70
2022-08-07T17:10:57.082Z,24.50
2022-08-07T17:14:19.430Z,24.50
2022-08-07T17:16:55.958Z,24.40
2022-08-07T17:20:01.735Z,24.30
2022-08-07T17:22:38.093Z,24.30
2022-08-07T17:28:38.783Z,24.40
2022-08-07T17:31:23.020Z,24.30
2022-08-07T17:34:15.071Z,24.20
2022-08-07T17:36:59.819Z,24.20
2022-08-07T17:39:58.259Z,24.30
2022-08-07T17:42:59.173Z,24.20
2022-08-07T17:48:12.968Z,23.90
2022-08-07T17:50:55.840Z,24.20
2022-08-07T17:53:57.143Z,23.90
2022-08-07T17:56:34.310Z,23.80
2022-08-07T17:59:19.729Z,23.70
2022-08-07T18:01:57.432Z,23.70
2022-08-07T18:04:35.395Z,23.60
2022-08-07T18:12:30.567Z,23.50
2022-08-07T18:15:06.030Z,23.60
2022-08-07T18:18:47.119Z,23.50
2022-08-07T18:21:08.667Z,23.60
2022-08-07T18:23:42.137Z,23.70
2022-08-07T18:26:15.260Z,23.70
2022-08-07T18:37:09.576Z,23.60
2022-08-07T18:40:39.884Z,23.60
2022-08-07T18:43:04.727Z,23.40
2022-08-07T18:46:21.896Z,23.40
2022-08-07T18:50:19.686Z,23.60
2022-08-07T18:52:34.935Z,23.30
2022-08-07T19:00:00.423Z,23.30
2022-08-07T19:02:42.503Z,23.10
2022-08-07T19:05:21.426Z,23.20
2022-08-07T19:08:05.191Z,23.10
2022-08-07T19:10:51.598Z,23.10
2022-08-07T19:13:31.866Z,23.20
2022-08-07T19:17:00.689Z,23.10
2022-08-07T19:24:02.099Z,23.00
2022-08-07T19:26:55.467Z,22.80
2022-08-07T19:31:04.038Z,22.70
2022-08-07T19:32:26.635Z,22.70
2022-08-07T19:35:02.188Z,22.80
2022-08-07T19:37:56.517Z,22.50
2022-08-07T19:40:30.830Z,22.50
2022-08-07T19:48:06.499Z,22.50
2022-08-07T19:50:53.617Z,22.50
2022-08-07T19:54:33.819Z,22.50
2022-08-07T19:58:04.472Z,22.40
2022-08-07T19:59:14.166Z,22.30
2022-08-07T20:01:57.745Z,22.30
2022-08-07T20:04:37.707Z,22.40
2022-08-07T20:12:31.360Z,22.30
2022-08-07T20:15:09.778Z,22.10
2022-08-07T20:18:01.264Z,22.20
2022-08-07T20:20:33.670Z,22.10
2022-08-07T20:23:23.079Z,22.10
2022-08-07T20:25:53.690Z,22.00
2022-08-07T20:28:29.969Z,21.90
2022-08-07T20:36:07.191Z,21.90
2022-08-07T20:38:59.757Z,21.90
2022-08-07T20:41:34.298Z,21.80
2022-08-07T20:44:12.637Z,21.80
2022-08-07T20:46:44.743Z,21.80
2022-08-07T20:49:59.905Z,21.80
2022-08-07T20:52:24.634Z,21.80
2022-08-07T21:00:09.590Z,21.60
2022-08-07T21:03:00.624Z,21.60
2022-08-07T21:05:51.019Z,21.60
2022-08-07T21:08:28.751Z,21.50
2022-08-07T21:11:07.526Z,21.40
2022-08-07T21:13:57.919Z,21.50
2022-08-07T21:16:35.658Z,21.50
2022-08-07T21:24:15.318Z,21.40
2022-08-07T21:26:50.899Z,21.20
2022-08-07T21:29:23.628Z,21.10
2022-08-07T21:32:43.188Z,20.90
2022-08-07T21:34:58.770Z,20.80
2022-08-07T21:37:31.655Z,20.90
2022-08-07T21:40:35.896Z,20.90
2022-08-07T21:48:29.158Z,20.60
2022-08-07T21:51:19.253Z,20.40
2022-08-07T21:53:52.838Z,20.30
2022-08-07T21:56:36.342Z,20.30
2022-08-07T21:59:14.488Z,20.30
2022-08-07T22:02:11.184Z,20.40
2022-08-07T22:12:35.500Z,20.30
2022-08-07T22:16:39.292Z,20.10
2022-08-07T22:18:01.478Z,20.00
2022-08-07T22:20:38.350Z,19.90
2022-08-07T22:23:23.114Z,19.70
2022-08-07T22:26:05.791Z,19.70
2022-08-07T22:36:09.722Z,19.60
2022-08-07T22:38:48.701Z,19.30
2022-08-07T22:41:29.103Z,19.20
2022-08-07T22:44:18.628Z,19.10
2022-08-07T22:47:14.957Z,19.20
2022-08-07T22:50:20.828Z,19.30
2022-08-07T23:01:50.627Z,19.20
2022-08-07T23:04:56.702Z,19.20
2022-08-07T23:07:42.406Z,19.20
2022-08-07T23:10:37.778Z,19.30
2022-08-07T23:13:48.550Z,19.30
2022-08-07T23:16:54.971Z,19.30
2022-08-07T23:22:32.951Z,19.20
2022-08-07T23:25:14.271Z,19.00
2022-08-07T23:28:22.745Z,19.00
2022-08-07T23:31:11.655Z,18.90
2022-08-07T23:34:36.539Z,18.90
2022-08-07T23:37:18.626Z,18.90
2022-08-07T23:42:58.878Z,19.00
2022-08-07T23:46:01.716Z,18.80
2022-08-07T23:49:01.810Z,18.80
2022-08-07T23:53:02.157Z,18.80
2022-08-07T23:54:43.987Z,18.90
2022-08-07T23:57:22.478Z,18.80
